logo



Minimumtemperatur heute 7.5     Maximumtemperatur heute 15.3
Datum Zeit
MEZ
Lufttemperatur
C
Windrichtung
Grad
Wind Mittel
Km/h
Wind Min
Km/h
Wind Max
Km/h
rel. Feuchte
%
2016-05-24 18:20:00 12.7 198 0.1 0.0 1.0 91
2016-05-24 18:15:00 12.8 151 0.0 0.0 0.3 91
2016-05-24 18:10:00 12.8 156 0.1 0.0 1.2 91
2016-05-24 18:05:00 12.8 202 0.5 0.7 3.5 91
2016-05-24 18:00:00 12.7 210 0.9 2.4 5.3 91
2016-05-24 17:55:00 12.6 220 0.8 2.5 3.8 91
2016-05-24 17:50:00 12.7 222 0.6 1.6 3.9 91
2016-05-24 17:45:00 12.9 203 0.5 1.5 2.3 91
2016-05-24 17:40:00 13.1 204 0.2 0.0 2.0 90
2016-05-24 17:35:00 13.1 118 0.1 0.0 1.2 91
2016-05-24 17:30:00 13.0 165 0.0 0.0 0.3 91
2016-05-24 17:25:00 13.0 195 0.1 0.0 1.3 91
2016-05-24 17:20:00 13.0 195 0.3 0.7 1.3 91
2016-05-24 17:15:00 13.0 195 0.2 0.2 1.3 91
2016-05-24 17:10:00 13.1 192 0.2 0.3 1.5 90
2016-05-24 17:05:00 13.3 192 0.5 1.0 2.3 90
2016-05-24 17:00:00 13.5 175 0.3 0.4 2.3 89
2016-05-24 16:55:00 13.8 164 0.2 0.1 1.7 88
2016-05-24 16:50:00 13.6 146 0.1 0.0 1.0 89
2016-05-24 16:45:00 13.5 213 0.0 0.0 0.8 89
2016-05-24 16:40:00 13.5 213 0.2 0.0 1.3 89
2016-05-24 16:35:00 13.4 212 0.0 0.0 0.4 88
2016-05-24 16:30:00 13.7 203 0.1 0.0 1.7 87
2016-05-24 16:25:00 13.8 182 0.4 0.3 2.4 86
2016-05-24 16:20:00 14.3 154 0.7 0.7 3.8 80
2016-05-24 16:15:00 14.3 105 0.8 1.7 3.9 81
2016-05-24 16:10:00 14.3 121 0.4 0.4 2.9 81
2016-05-24 16:05:00 14.3 134 0.6 0.6 4.3 81
2016-05-24 16:00:00 14.2 133 0.6 1.1 3.9 81
2016-05-24 15:55:00 14.2 96 0.6 1.2 3.7 82
2016-05-24 15:50:00 13.9 93 0.5 0.8 3.8 81
2016-05-24 15:45:00 13.6 150 0.4 0.4 4.4 87
2016-05-24 15:40:00 13.6 157 0.4 0.6 3.0 88
2016-05-24 15:35:00 13.6 147 0.4 0.6 3.1 86
2016-05-24 15:30:00 13.9 180 0.2 0.0 2.2 86
2016-05-24 15:25:00 14.1 139 0.9 1.5 5.8 79
2016-05-24 15:20:00 14.0 143 1.1 2.6 5.5 79
2016-05-24 15:15:00 13.8 137 0.7 1.5 4.1 81
2016-05-24 15:10:00 13.4 142 0.6 0.8 3.4 86
2016-05-24 15:05:00 13.2 151 0.4 0.3 3.5 88
2016-05-24 15:00:00 13.4 159 0.5 0.4 3.2 87
2016-05-24 14:55:00 13.3 150 0.5 1.1 3.1 87
2016-05-24 14:50:00 13.8 168 0.4 1.1 2.3 85
2016-05-24 14:45:00 13.6 132 0.3 0.2 2.1 84
2016-05-24 14:40:00 13.5 126 0.6 0.7 3.5 86
2016-05-24 14:35:00 13.0 139 0.4 0.5 3.4 88
2016-05-24 14:30:00 12.9 210 0.3 0.0 2.7 88
2016-05-24 14:25:00 13.1 154 0.7 0.9 4.7 86
2016-05-24 14:20:00 13.6 158 0.9 1.8 4.7 83
2016-05-24 14:15:00 13.6 150 1.0 1.7 6.0 82
2016-05-24 14:10:00 13.7 139 0.7 0.9 4.6 80
2016-05-24 14:05:00 13.8 0 0.0 0.0 0.0 79
2016-05-24 14:00:00 13.7 147 1.0 1.8 5.6 79
2016-05-24 13:55:00 13.6 134 0.8 1.2 4.6 81
2016-05-24 13:50:00 13.5 148 0.8 1.3 5.8 84
2016-05-24 13:45:00 13.9 160 0.7 0.8 5.2 82
2016-05-24 13:40:00 14.2 158 0.9 1.0 4.8 81
2016-05-24 13:35:00 14.5 132 1.1 2.3 6.0 74
2016-05-24 13:30:00 14.6 136 1.0 1.7 6.2 80
2016-05-24 13:25:00 14.6 153 1.5 3.5 7.5 73
2016-05-24 13:20:00 14.6 93 2.0 5.5 8.6 70
2016-05-24 13:15:00 14.6 100 2.1 4.6 11.5 72
2016-05-24 13:10:00 14.8 92 2.5 6.3 11.1 72
2016-05-24 13:05:00 15.0 77 2.4 3.5 13.4 71
2016-05-24 13:00:00 15.3 125 2.8 6.6 14.4 74
2016-05-24 12:55:00 15.2 80 3.1 6.8 15.9 74
2016-05-24 12:50:00 15.3 110 2.5 4.0 14.1 74
2016-05-24 12:45:00 15.1 84 3.0 7.6 14.8 73
2016-05-24 12:40:00 14.6 94 3.2 7.9 14.7 74
2016-05-24 12:35:00 14.7 103 3.5 6.6 16.9 72
2016-05-24 12:30:00 14.6 109 2.9 5.0 16.0 74
2016-05-24 12:25:00 14.5 108 2.3 3.2 11.9 77
2016-05-24 12:20:00 14.5 66 2.1 3.6 12.4 72
2016-05-24 12:15:00 14.3 74 3.2 9.0 13.8 75
2016-05-24 12:10:00 14.1 91 2.0 2.9 12.1 75
2016-05-24 12:05:00 14.0 77 2.5 5.4 12.9 75
2016-05-24 12:00:00 14.1 101 2.0 3.6 10.9 77
2016-05-24 11:55:00 13.8 101 1.2 0.1 10.2 76
2016-05-24 11:50:00 13.5 92 1.4 1.3 10.5 78
2016-05-24 11:45:00 13.5 167 1.7 1.4 11.7 78
2016-05-24 11:40:00 13.4 138 1.0 0.9 5.9 78
2016-05-24 11:35:00 13.1 125 1.2 2.1 7.8 79
2016-05-24 11:30:00 13.1 135 1.3 1.5 10.5 76
2016-05-24 11:25:00 13.0 166 0.7 0.5 5.4 82
2016-05-24 11:20:00 12.6 177 1.3 0.8 9.7 79
2016-05-24 11:15:00 12.6 98 0.7 0.0 5.3 79
2016-05-24 11:10:00 12.4 162 1.0 0.4 5.9 78
2016-05-24 11:05:00 12.3 112 0.5 0.0 3.8 79
2016-05-24 11:00:00 12.2 230 0.7 0.4 5.4 82
2016-05-24 10:55:00 12.1 141 0.6 0.5 5.5 83
2016-05-24 10:50:00 11.8 190 0.5 0.1 4.7 83
2016-05-24 10:45:00 12.0 160 0.9 0.2 5.4 82
2016-05-24 10:40:00 11.9 75 0.4 0.0 4.2 81
2016-05-24 10:35:00 11.7 54 0.5 0.3 4.3 83
2016-05-24 10:30:00 11.5 231 0.4 0.3 3.0 82
2016-05-24 10:25:00 11.4 216 0.7 0.3 4.1 82
2016-05-24 10:20:00 11.4 199 0.8 0.7 4.6 83
2016-05-24 10:15:00 11.5 198 0.9 0.4 5.5 84
2016-05-24 10:10:00 11.7 240 0.7 0.9 6.4 84
2016-05-24 10:05:00 11.6 123 0.6 0.4 6.0 85
2016-05-24 10:00:00 11.1 225 0.5 0.3 3.6 85
2016-05-24 09:55:00 10.7 194 0.3 0.0 2.0 86
2016-05-24 09:50:00 10.5 291 0.3 0.0 3.2 86
2016-05-24 09:45:00 10.4 229 0.5 0.0 3.5 87
2016-05-24 09:40:00 10.1 191 0.6 0.0 4.3 86
2016-05-24 09:35:00 10.2 211 0.7 1.2 4.5 87
2016-05-24 09:30:00 10.1 206 0.9 0.5 6.9 88
2016-05-24 09:25:00 10.0 192 0.8 0.9 4.7 87
2016-05-24 09:20:00 10.1 200 0.7 0.0 6.7 88
2016-05-24 09:15:00 9.8 57 0.7 1.3 4.4 89
2016-05-24 09:10:00 9.3 202 0.7 1.2 4.1 90
2016-05-24 09:05:00 9.0 220 0.9 1.5 4.6 90
2016-05-24 09:00:00 8.9 219 0.4 0.4 2.8 90
2016-05-24 08:55:00 8.7 145 0.8 1.3 4.8 90
2016-05-24 08:50:00 8.6 94 1.2 2.9 5.5 90
2016-05-24 08:45:00 8.5 94 0.8 1.3 5.4 91
2016-05-24 08:40:00 8.5 98 0.9 1.7 5.9 90
2016-05-24 08:35:00 8.4 123 0.1 0.0 1.3 90
2016-05-24 08:30:00 8.3 210 0.0 0.0 0.8 90
2016-05-24 08:25:00 8.2 110 0.6 1.0 3.5 90
2016-05-24 08:20:00 8.2 125 0.5 0.5 3.0 91
2016-05-24 08:15:00 8.1 101 0.1 0.0 2.1 92
2016-05-24 08:10:00 7.9 207 0.5 0.0 4.0 92
2016-05-24 08:05:00 8.0 246 0.5 0.1 3.8 93
2016-05-24 08:00:00 7.9 202 0.6 0.7 4.0 92
2016-05-24 07:55:00 7.9 214 0.7 1.4 3.7 93
2016-05-24 07:50:00 7.8 166 0.5 1.2 3.2 93
2016-05-24 07:45:00 7.8 215 0.5 0.5 2.9 93
2016-05-24 07:40:00 7.8 184 0.8 0.5 6.6 93
2016-05-24 07:35:00 7.7 97 0.8 0.8 5.6 93
2016-05-24 07:30:00 7.7 95 1.0 0.1 7.7 93
2016-05-24 07:25:00 7.6 112 1.3 2.4 6.3 92
2016-05-24 07:20:00 7.5 149 1.6 3.8 7.2 92
2016-05-24 07:15:00 7.6 123 1.5 3.0 7.9 92
2016-05-24 07:10:00 7.6 144 1.3 3.1 6.7 92
2016-05-24 07:05:00 7.7 129 1.0 2.8 4.6 93
2016-05-24 07:00:00 7.7 111 0.5 0.2 4.2 93
2016-05-24 06:55:00 7.6 61 0.1 0.0 1.2 93
2016-05-24 06:50:00 7.5 272 0.1 0.0 1.3 93
2016-05-24 06:45:00 7.6 206 0.2 0.0 2.4 93
2016-05-24 06:40:00 7.6 143 0.5 0.2 4.2 93
2016-05-24 06:35:00 7.5 141 0.4 0.1 3.4 93
2016-05-24 06:30:00 7.5 131 0.9 0.8 4.8 93
2016-05-24 06:25:00 7.5 114 0.5 0.0 4.2 93
www.zamg.ac.at

klagenfurt@zamg.ac.at